ネータージー・スバース・チャンドラ・ボース国際空港の過去48時間の天気

ネータージー・スバース・チャンドラ・ボース国際空港 (Calcutta / Dum Dum)

現在時刻: 10/1 21:24 IST (10/1 15:54 UTC) 以下の時間は現地時間です。

過去48時間のMETAR気象情報
時間 風向 風速(m/s) 視程 気温(℃) 湿度(%) 気圧(hPa) 天気現象
1 21:00 静穏 0 3500m 28 94 1004 煙霧
1 20:30 2 3500m 29 89 1003 煙霧
1 20:00 東南東 2 3500m 30 89 1003 煙霧
1 19:30 南南東 2 3500m 30 84 1002 煙霧
1 19:00 南南東 2 3500m 30 89 1001 煙霧
1 18:30 南東 2 3500m 30 89 1001 煙霧
1 18:00 南東 2 3500m 31 84 1000 煙霧
1 17:30 東南東 3 3500m 31 89 1000 煙霧
1 17:00 2 4000m 32 84 1000 煙霧
1 16:30 東南東 3 4000m 32 84 1000 煙霧
1 16:00 4 4000m 32 84 1000 煙霧
1 15:30 南東 3 4000m 33 80 1000 煙霧
1 15:00 4 4000m 33 80 1000 煙霧
1 14:30 4 4000m 34 75 1000 煙霧
1 14:00 4 4000m 33 80 1001 煙霧
1 13:30 4 4000m 34 80 1001 煙霧
1 13:00 5 4000m 33 80 1001 煙霧
1 12:30 4 4000m 33 80 1002 煙霧
1 12:00 3 4000m 33 80 1003 煙霧
1 11:30 4 4000m 33 80 1003 煙霧
1 11:00 東南東 4 4000m 32 84 1004 煙霧
1 10:30 4 4000m 32 84 1004 煙霧
1 10:00 4 4000m 32 84 1004 煙霧
1 09:30 東南東 2 4000m 31 84 1004 煙霧
1 09:00 4 4000m 31 84 1004 煙霧
1 08:30 4 4000m 31 79 1004 煙霧
1 08:00 3 4000m 30 84 1004 煙霧
1 07:30 北東 3 3800m 29 89 1003 煙霧
1 07:00 北北東 2 3500m 28 94 1003 煙霧
1 06:30 北北東 2 3500m 28 94 1003 煙霧
1 06:00 北北東 3 3200m 27 94 1002 煙霧
1 05:30 北北東 2 3200m 27 94 1002 煙霧
1 05:00 2 3500m 27 94 1002 煙霧
1 04:30 2 3500m 27 94 1002 煙霧
1 04:00 2 3500m 27 94 1002 煙霧
1 03:30 2 3500m 27 94 1001 煙霧
1 03:00 2 3500m 27 94 1001 煙霧
1 02:30 2 3500m 27 94 1001 煙霧
1 02:00 2 3500m 27 94 1002 煙霧
1 01:30 2 3500m 27 94 1002 煙霧
1 01:00 2 3500m 27 94 1002 煙霧
1 00:30 2 3500m 27 94 1002 煙霧
1 00:00 2 3500m 28 89 1002 煙霧
30 23:30 北北東 2 3500m 28 89 1003 煙霧
30 23:00 北北東 2 3500m 28 94 1003 煙霧
30 22:30 2 3500m 28 94 1003 煙霧
30 22:00 静穏 0 3500m 28 94 1004 煙霧
30 21:30 静穏 0 3500m 28 94 1004 煙霧
30 21:00 西北西 2 3500m 28 94 1004 煙霧
30 20:30 静穏 0 3500m 28 94 1003 煙霧
30 20:00 4 3500m 29 89 1003 煙霧
30 19:30 静穏 0 3500m 31 89 1003 煙霧
30 19:00 静穏 0 3500m 31 94 1002 煙霧
30 18:30 静穏 0 3500m 31 94 1002 煙霧
30 18:00 静穏 0 3500m 32 89 1001 煙霧
30 17:30 南東 2 3500m 32 84 1000 弱い雨
30 17:00 南東 2 4000m 32 84 1000 煙霧
30 16:30 南南東 2 4000m 33 80 1000 煙霧
30 16:00 南南東 2 4000m 33 80 1000 煙霧
30 15:30 南東 3 4000m 33 80 1000 煙霧
30 15:00 南南東 3 4000m 34 75 1000 煙霧
30 14:30 東南東 2 4000m 34 75 1000 煙霧
30 14:00 3 4000m 35 75 1000 煙霧
30 13:30 東南東 4 3800m 35 75 1001 煙霧
30 13:00 南東 4 3500m 35 75 1002 煙霧
30 12:30 東南東 4 3500m 35 75 1003 煙霧
30 12:00 東南東 4 3500m 34 80 1003 煙霧
30 11:30 南東 3 3500m 34 80 1003 煙霧
30 11:00 南東 2 3500m 34 75 1004 煙霧
30 10:30 東南東 3 3500m 34 75 1004 煙霧
30 10:00 2 3500m 33 80 1005 煙霧
30 09:30 東南東 2 3500m 33 80 1005 煙霧
30 09:00 北東 2 3500m 32 79 1005 煙霧
30 08:30 東北東 2 3500m 32 79 1005 煙霧
30 08:00 東南東 2 3200m 31 84 1005 煙霧
30 07:30 2 3200m 31 84 1005 煙霧
30 07:00 静穏 0 3200m 30 89 1004 もや
30 06:30 静穏 0 3200m 29 94 1004 もや
30 06:00 静穏 0 3200m 28 94 1003 煙霧
30 05:30 静穏 0 3200m 28 94 1003 煙霧
30 05:00 静穏 0 3200m 28 100 1002 煙霧
30 04:00 静穏 0 3200m 28 100 1002 煙霧
30 03:30 静穏 0 3200m 28 100 1002 煙霧
30 03:00 静穏 0 3300m 29 94 1002 煙霧
30 02:30 静穏 0 3300m 29 94 1002 煙霧
30 02:00 静穏 0 3300m 29 94 1002 煙霧
30 01:30 静穏 0 3300m 29 94 1002 煙霧
30 01:00 静穏 0 3300m 29 94 1002 煙霧
30 00:30 静穏 0 3300m 30 89 1003 煙霧
30 00:00 静穏 0 3300m 30 94 1003 煙霧
29 23:30 南東 2 3500m 30 94 1003 煙霧
29 23:00 静穏 0 3500m 30 89 1003 煙霧
29 22:30 静穏 0 3500m 30 89 1004 煙霧
29 22:00 静穏 0 3500m 30 94 1004 煙霧
29 21:30 南南東 2 3500m 30 94 1005 煙霧
VECC 011530Z 00000KT 3500 HZ FEW018 FEW030CB SCT100 28/27 Q1004 NOSIG
VECC 011500Z 08003KT 3500 HZ FEW018 FEW030CB SCT100 29/27 Q1003 NOSIG
VECC 011430Z 12003KT 3500 HZ FEW018 FEW030CB SCT100 30/28 Q1003 NOSIG
VECC 011400Z 15003KT 3500 HZ FEW018 FEW030CB SCT100 30/27 Q1002 NOSIG
VECC 011330Z 16003KT 3500 HZ FEW018 FEW030CB SCT100 30/28 Q1001 NOSIG
VECC 011300Z 13003KT 3500 HZ FEW018 SCT100 30/28 Q1001 NOSIG
VECC 011230Z 14004KT 3500 HZ SCT018 SCT100 31/28 Q1000 NOSIG
VECC 011200Z 12005KT 3500 HZ FEW018 SCT100 31/29 Q1000 NOSIG
VECC 011130Z 10004KT 4000 HZ FEW018 SCT100 32/29 Q1000 NOSIG
VECC 011100Z 11005KT 4000 HZ FEW018 SCT100 32/29 Q1000 NOSIG
VECC 011030Z 10007KT 4000 HZ FEW018 SCT100 32/29 Q1000 NOSIG
VECC 011000Z 13006KT 4000 HZ FEW018 SCT100 33/29 Q1000 NOSIG
VECC 010930Z 10008KT 4000 HZ SCT018 SCT025 33/29 Q1000 NOSIG
VECC 010900Z 10008KT 4000 HZ SCT018 SCT025 34/29 Q1000 NOSIG
VECC 010830Z 10008KT 4000 HZ SCT018 SCT025 33/29 Q1001 NOSIG
VECC 010800Z 10008KT 4000 HZ SCT018 SCT025 34/30 Q1001 NOSIG
VECC 010730Z 10009KT 4000 HZ SCT018 SCT025 33/29 Q1001 NOSIG
VECC 010700Z 10008KT 4000 HZ FEW018 SCT025 BKN100 33/29 Q1002 NOSIG
VECC 010630Z 10006KT 4000 HZ SCT018 BKN100 33/29 Q1003 NOSIG
VECC 010600Z 08007KT 4000 HZ SCT018 BKN100 33/29 Q1003 NOSIG
VECC 010530Z 12007KT 4000 HZ SCT018 BKN100 32/29 Q1004 NOSIG
VECC 010500Z 10008KT 4000 HZ SCT018 BKN100 32/29 Q1004 NOSIG
VECC 010430Z 10007KT 4000 HZ SCT018 BKN100 32/29 Q1004 NOSIG
VECC 010400Z 12004KT 4000 HZ SCT018 BKN100 31/28 Q1004 NOSIG
VECC 010330Z 09007KT 4000 HZ SCT018 SCT025 31/28 Q1004 NOSIG
VECC 010300Z 10007KT 4000 HZ SCT018 SCT025 31/27 Q1004 NOSIG
VECC 010230Z 09006KT 4000 HZ FEW020 SCT100 30/27 Q1004 NOSIG
VECC 010200Z 05005KT 3800 HZ FEW020 SCT100 29/27 Q1003 NOSIG
VECC 010130Z 03004KT 3500 HZ FEW020 SCT100 28/27 Q1003 NOSIG
VECC 010100Z 03004KT 3500 HZ FEW020 SCT100 28/27 Q1003 NOSIG
VECC 010030Z 03005KT 3200 HZ FEW020 SCT100 27/26 Q1002 NOSIG
VECC 010000Z 02004KT 3200 HZ SCT020 SCT100 27/26 Q1002 NOSIG
VECC 302330Z 01004KT 3500 HZ SCT020 BKN100 27/26 Q1002 NOSIG
VECC 302300Z 35004KT 3500 HZ SCT020 BKN100 27/26 Q1002 NOSIG
VECC 302230Z 35004KT 3500 HZ SCT020 BKN100 27/26 Q1002 NOSIG
VECC 302200Z 36003KT 3500 HZ SCT020 BKN100 27/26 Q1001 NOSIG
VECC 302130Z 36004KT 3500 HZ SCT020 BKN100 27/26 Q1001 NOSIG
VECC 302100Z 36004KT 3500 HZ SCT020 BKN100 27/26 Q1001 NOSIG
VECC 302030Z 36004KT 3500 HZ SCT020 BKN100 27/26 Q1002 NOSIG
VECC 302000Z 36003KT 3500 HZ SCT020 BKN100 27/26 Q1002 NOSIG
VECC 301930Z 36003KT 3500 HZ SCT020 BKN100 27/26 Q1002 NOSIG
VECC 301900Z 36003KT 3500 HZ SCT020 BKN100 27/26 Q1002 NOSIG
VECC 301830Z 36004KT 3500 HZ SCT020 BKN100 28/26 Q1002 NOSIG
VECC 301800Z 02004KT 3500 HZ SCT020 BKN100 28/26 Q1003 NOSIG
VECC 301730Z 02003KT 3500 HZ SCT020 SCT100 28/27 Q1003 NOSIG
VECC 301700Z 01003KT 3500 HZ SCT020 FEW030CB SCT100 28/27 Q1003 NOSIG
VECC 301630Z 00000KT 3500 HZ SCT020 SCT100 28/27 Q1004 NOSIG
VECC 301600Z 00000KT 3500 HZ SCT020 SCT100 28/27 Q1004 NOSIG
VECC 301530Z 29004KT 3500 HZ SCT018 FEW030CB SCT100 28/27 Q1004 NOSIG
VECC 301500Z 00000KT 3500 HZ SCT018 FEW030CB SCT100 28/27 Q1003 NOSIG
VECC 301430Z 35007KT 3500 HZ SCT018 FEW030CB BKN100 29/27 Q1003 NOSIG
VECC 301400Z 00000KT 3500 HZ SCT018 FEW030CB SCT100 31/29 Q1003 NOSIG
VECC 301330Z 00000KT 3500 HZ SCT018 FEW030CB SCT100 31/30 Q1002 NOSIG
VECC 301300Z 00000KT 3500 HZ SCT018 FEW030CB SCT100 31/30 Q1002 NOSIG
VECC 301230Z 00000KT 3500 HZ SCT018 FEW030CB SCT100 32/30 Q1001 NOSIG
VECC 301200Z 14003KT 3500 -RA SCT018 FEW030CB SCT090 32/29 Q1000 NOSIG
VECC 301130Z 14003KT 4000 HZ SCT020 FEW030CB SCT100 32/29 Q1000 NOSIG
VECC 301100Z 16004KT 4000 HZ SCT020 FEW030CB SCT100 33/29 Q1000 NOSIG
VECC 301030Z 15004KT 4000 HZ SCT020 FEW030CB SCT100 33/29 Q1000 NOSIG
VECC 301000Z 13005KT 4000 HZ SCT020 FEW030CB SCT100 33/29 Q1000 NOSIG
VECC 300930Z 15005KT 4000 HZ SCT020 FEW030CB SCT100 34/29 Q1000 NOSIG
VECC 300900Z 12004KT 4000 HZ SCT020 FEW030CB SCT100 34/29 Q1000 NOSIG
VECC 300830Z 10006KT 4000 HZ SCT020 FEW030CB SCT100 35/30 Q1000 NOSIG
VECC 300800Z 11007KT 3800 HZ SCT020 FEW030CB SCT100 35/30 Q1001 NOSIG
VECC 300730Z 14007KT 3500 HZ SCT020 FEW030CB SCT100 35/30 Q1002 NOSIG
VECC 300700Z 12007KT 3500 HZ SCT020 SCT100 35/30 Q1003 NOSIG
VECC 300630Z 11007KT 3500 HZ SCT020 SCT100 34/30 Q1003 NOSIG
VECC 300600Z 13006KT 3500 HZ SCT020 SCT100 34/30 Q1003 NOSIG
VECC 300530Z 13003KT 3500 HZ SCT020 SCT100 34/29 Q1004 NOSIG
VECC 300500Z 12005KT 3500 HZ SCT020 SCT100 34/29 Q1004 NOSIG
VECC 300430Z 10004KT 3500 HZ SCT020 SCT100 33/29 Q1005 NOSIG
VECC 300400Z 110004KT 3500 HZ SCT020 SCT100 33/29 Q1005 NOSIG
VECC 300330Z 05003KT 3500 HZ SCT020 SCT100 32/28 Q1005 NOSIG
VECC 300300Z 07003KT 3500 HZ SCT020 SCT100 32/28 Q1005 NOSIG
VECC 300230Z 12003KT 3200 HZ SCT020 SCT100 31/28 Q1005 NOSIG
VECC 300200Z 09003KT 3200 HZ SCT020 SCT100 31/28 Q1005 NOSIG
VECC 300130Z 00000KT 3200 BR SCT020 SCT100 30/28 Q1004 NOSIG
VECC 300100Z 00000KT 3200 BR SCT020 SCT100 29/28 Q1004 NOSIG
VECC 300030Z 00000KT 3200 HZ SCT020 28/27 Q1003 NOSIG
VECC 300000Z 00000KT 3200 HZ SCT020 28/27 Q1003 NOSIG
VECC 292330Z 00000KT 3200 HZ SCT018 28/28 Q1002 NOSIG
VECC 292230Z 00000KT 3200 HZ SCT018 28/28 Q1002 NOSIG
VECC 292200Z 00000KT 3200 HZ SCT018 28/28 Q1002 NOSIG
VECC 292130Z 00000KT 3300 HZ SCT018 29/28 Q1002 NOSIG
VECC 292100Z 00000KT 3300 HZ SCT018 29/28 Q1002 NOSIG
VECC 292030Z 00000KT 3300 HZ SCT018 29/28 Q1002 NOSIG
VECC 292000Z 00000KT 3300 HZ SCT018 29/28 Q1002 NOSIG
VECC 291930Z 00000KT 3300 HZ SCT018 SCT100 29/28 Q1002 NOSIG
VECC 291900Z 00000KT 3300 HZ SCT018 SCT100 30/28 Q1003 NOSIG
VECC 291830Z 00000KT 3300 HZ SCT018 SCT100 30/29 Q1003 NOSIG
VECC 291800Z 14003KT 3500 HZ SCT018 SCT100 30/29 Q1003 NOSIG
VECC 291730Z 00000KT 3500 HZ SCT018 SCT100 30/28 Q1003 NOSIG
VECC 291700Z 00000KT 3500 HZ SCT018 SCT100 30/28 Q1004 NOSIG
VECC 291630Z 00000KT 3500 HZ SCT018 SCT100 30/29 Q1004 NOSIG
VECC 291600Z 15004KT 3500 HZ SCT018 SCT100 30/29 Q1005 NOSIG